createdAt,value
2019-04-27T00:00:39.408Z,0
2019-04-27T00:01:44.761Z,0
2019-04-27T00:02:43.468Z,0
2019-04-27T00:03:44.843Z,0
2019-04-27T00:04:44.699Z,0
2019-04-27T00:05:46.050Z,0
2019-04-27T00:06:47.412Z,0
2019-04-27T00:07:51.511Z,0
2019-04-27T00:08:50.084Z,0
2019-04-27T00:09:53.015Z,0
2019-04-27T00:10:53.252Z,0
2019-04-27T00:11:54.072Z,0
2019-04-27T00:12:57.183Z,0
2019-04-27T00:13:56.764Z,0
2019-04-27T00:14:58.112Z,0
2019-04-27T00:15:59.466Z,0
2019-04-27T00:17:00.819Z,0
2019-04-27T00:18:03.561Z,0
2019-04-27T00:19:03.918Z,0
2019-04-27T00:20:04.805Z,0
2019-04-27T00:21:06.168Z,0
2019-04-27T00:22:07.513Z,0
2019-04-27T00:23:08.869Z,0
2019-04-27T00:24:10.215Z,0
2019-04-27T00:25:13.002Z,0
2019-04-27T00:26:13.104Z,0
2019-04-27T00:27:14.196Z,0
2019-04-27T00:28:15.554Z,0
2019-04-27T00:29:16.913Z,0
2019-04-27T00:30:18.276Z,0
2019-04-27T00:31:19.626Z,0
2019-04-27T00:32:20.991Z,0
2019-04-27T00:33:23.719Z,0
2019-04-27T00:34:23.703Z,0
2019-04-27T00:35:25.031Z,0
2019-04-27T00:36:26.389Z,0
2019-04-27T00:37:27.742Z,0
2019-04-27T00:38:29.095Z,0
2019-04-27T00:39:30.450Z,0
2019-04-27T00:40:33.432Z,0
2019-04-27T00:41:33.980Z,0
2019-04-27T00:42:35.726Z,0
2019-04-27T00:43:35.743Z,0
2019-04-27T00:44:37.103Z,0
2019-04-27T00:45:38.446Z,0
2019-04-27T00:46:39.796Z,0
2019-04-27T00:47:53.785Z,0
2019-04-27T00:48:43.278Z,0
2019-04-27T00:49:44.356Z,0
2019-04-27T00:50:45.098Z,0
2019-04-27T00:51:46.458Z,0
2019-04-27T00:52:47.805Z,0
2019-04-27T00:53:49.168Z,0
2019-04-27T00:54:50.517Z,0
2019-04-27T00:55:53.537Z,0
2019-04-27T00:56:53.181Z,0
2019-04-27T00:57:54.535Z,0
2019-04-27T00:58:55.886Z,0
2019-04-27T00:59:57.238Z,0
2019-04-27T01:00:58.581Z,0
2019-04-27T01:01:59.938Z,0
2019-04-27T01:03:01.299Z,0
2019-04-27T01:04:03.754Z,0
2019-04-27T01:05:05.770Z,0
2019-04-27T01:06:05.294Z,0
2019-04-27T01:07:06.643Z,0
2019-04-27T01:08:08.000Z,0
2019-04-27T01:09:09.349Z,0
2019-04-27T01:10:10.731Z,0
2019-04-27T01:11:12.064Z,0
2019-04-27T01:12:13.597Z,0
2019-04-27T01:13:14.738Z,0
2019-04-27T01:14:16.083Z,0
2019-04-27T01:15:17.439Z,0
2019-04-27T01:16:21.948Z,0
2019-04-27T01:17:20.114Z,0
2019-04-27T01:18:21.494Z,0
2019-04-27T01:19:22.854Z,0
2019-04-27T01:20:24.210Z,0
2019-04-27T01:21:25.565Z,0
2019-04-27T01:22:26.906Z,0
2019-04-27T01:23:29.421Z,0
2019-04-27T01:24:30.378Z,0
2019-04-27T01:25:30.908Z,0
2019-04-27T01:26:32.259Z,0
2019-04-27T01:27:33.609Z,0
2019-04-27T01:28:34.958Z,0
2019-04-27T01:29:36.314Z,0
2019-04-27T01:30:39.106Z,0
2019-04-27T01:31:39.607Z,0
2019-04-27T01:32:40.296Z,0
2019-04-27T01:33:41.656Z,0
2019-04-27T01:34:43.001Z,0
2019-04-27T01:35:44.351Z,0
2019-04-27T01:36:45.720Z,0
2019-04-27T01:37:48.680Z,0
2019-04-27T01:38:49.589Z,0
2019-04-27T01:39:50.404Z,0
2019-04-27T01:40:51.014Z,0
2019-04-27T01:41:52.359Z,0
2019-04-27T01:42:53.709Z,0
2019-04-27T01:43:55.055Z,0
2019-04-27T01:44:56.415Z,0
2019-04-27T01:45:58.698Z,0
2019-04-27T01:46:59.871Z,0
2019-04-27T01:48:00.410Z,0
2019-04-27T01:49:01.757Z,0
2019-04-27T01:50:03.097Z,0
2019-04-27T01:51:04.457Z,0
2019-04-27T01:52:05.822Z,0
2019-04-27T01:53:08.846Z,0
2019-04-27T01:54:10.226Z,0
2019-04-27T01:55:09.808Z,0
2019-04-27T01:56:11.147Z,0
2019-04-27T01:57:12.505Z,0
2019-04-27T01:58:13.860Z,0
2019-04-27T01:59:15.215Z,0
2019-04-27T02:00:16.557Z,0
2019-04-27T02:01:18.709Z,0
2019-04-27T02:02:19.241Z,0
2019-04-27T02:03:20.598Z,0
2019-04-27T02:04:21.943Z,0
2019-04-27T02:05:23.295Z,0
2019-04-27T02:06:24.648Z,0
2019-04-27T02:07:25.993Z,0
2019-04-27T02:08:28.555Z,0
2019-04-27T02:09:28.906Z,0
2019-04-27T02:10:29.977Z,0
2019-04-27T02:11:31.330Z,0
2019-04-27T02:12:32.672Z,0
2019-04-27T02:13:34.155Z,0
2019-04-27T02:14:35.502Z,0
2019-04-27T02:15:36.853Z,0
2019-04-27T02:16:39.170Z,0
2019-04-27T02:17:39.518Z,0
2019-04-27T02:18:40.871Z,0
2019-04-27T02:19:42.217Z,0
2019-04-27T02:20:44.512Z,0
2019-04-27T02:21:44.888Z,0
2019-04-27T02:22:46.233Z,0
2019-04-27T02:23:47.591Z,0
2019-04-27T02:24:49.239Z,0
2019-04-27T02:26:30.050Z,0
2019-04-27T02:27:31.162Z,0
2019-04-27T02:28:32.541Z,0
2019-04-27T02:29:33.891Z,0
2019-04-27T02:30:35.254Z,0
2019-04-27T02:31:36.603Z,0
2019-04-27T02:32:39.744Z,0
2019-04-27T02:33:40.350Z,0
2019-04-27T02:34:40.588Z,0
2019-04-27T02:35:42.206Z,0
2019-04-27T02:36:43.262Z,0
2019-04-27T02:37:44.616Z,0
2019-04-27T02:38:45.984Z,0
2019-04-27T02:39:49.800Z,0
2019-04-27T02:40:49.595Z,0
2019-04-27T02:41:51.811Z,0
2019-04-27T02:42:54.477Z,0
2019-04-27T02:43:52.578Z,0
2019-04-27T02:44:53.929Z,0
2019-04-27T02:45:55.275Z,0
2019-04-27T02:46:56.627Z,0
2019-04-27T02:47:59.843Z,0
2019-04-27T02:49:03.188Z,0
2019-04-27T02:50:00.786Z,0
2019-04-27T02:51:01.920Z,0
2019-04-27T02:52:03.276Z,0
2019-04-27T02:53:04.615Z,0
2019-04-27T02:54:05.969Z,0
2019-04-27T02:55:09.270Z,0
2019-04-27T02:56:10.236Z,0
2019-04-27T02:57:10.305Z,0
2019-04-27T02:58:13.054Z,0
2019-04-27T02:59:12.619Z,0
2019-04-27T03:00:13.975Z,0
2019-04-27T03:01:15.325Z,0
2019-04-27T03:02:19.426Z,0
2019-04-27T03:03:20.217Z,0
2019-04-27T03:04:20.409Z,0
2019-04-27T03:05:20.721Z,0
2019-04-27T03:06:22.088Z,0
2019-04-27T03:07:23.429Z,0
2019-04-27T03:08:24.794Z,0
2019-04-27T03:09:26.140Z,0
2019-04-27T03:10:29.631Z,0
2019-04-27T03:11:30.650Z,0
2019-04-27T03:12:30.152Z,0
2019-04-27T03:13:31.500Z,0
2019-04-27T03:14:36.051Z,0
2019-04-27T03:15:34.160Z,0
2019-04-27T03:16:35.528Z,0
2019-04-27T03:17:39.238Z,0
2019-04-27T03:18:40.384Z,0
2019-04-27T03:19:40.049Z,0
2019-04-27T03:20:40.825Z,0
2019-04-27T03:21:42.178Z,0
2019-04-27T03:22:43.534Z,0
2019-04-27T03:23:44.888Z,0
2019-04-27T03:24:46.231Z,0
2019-04-27T03:25:50.364Z,0
2019-04-27T03:26:50.004Z,0
2019-04-27T03:27:50.404Z,0
2019-04-27T03:28:51.532Z,0
2019-04-27T03:29:52.884Z,0
2019-04-27T03:30:54.238Z,0
2019-04-27T03:31:55.583Z,0
2019-04-27T03:32:58.812Z,0
2019-04-27T03:34:00.309Z,0
2019-04-27T03:35:02.697Z,0
2019-04-27T03:36:02.559Z,0
2019-04-27T03:37:02.220Z,0
2019-04-27T03:38:03.586Z,0
2019-04-27T03:39:04.919Z,4
2019-04-27T03:40:06.270Z,4
2019-04-27T03:41:09.358Z,4
2019-04-27T03:42:10.390Z,4
2019-04-27T03:43:11.714Z,4
2019-04-27T03:44:11.563Z,8
2019-04-27T03:45:13.052Z,8
2019-04-27T03:46:14.411Z,8
2019-04-27T03:47:15.769Z,12
2019-04-27T03:48:17.107Z,12
2019-04-27T03:49:29.388Z,12
2019-04-27T03:50:20.339Z,20
2019-04-27T03:51:21.083Z,24
2019-04-27T03:52:22.464Z,24
2019-04-27T03:53:23.815Z,32
2019-04-27T03:54:25.168Z,32
2019-04-27T03:55:26.514Z,40
2019-04-27T03:56:30.022Z,48
2019-04-27T03:57:29.746Z,56
2019-04-27T03:58:30.636Z,68
2019-04-27T03:59:32.554Z,76
2019-04-27T04:00:33.159Z,88
2019-04-27T04:01:34.518Z,104
2019-04-27T04:02:35.880Z,112
2019-04-27T04:03:39.156Z,128
2019-04-27T04:04:40.525Z,148
2019-04-27T04:05:39.995Z,168
2019-04-27T04:06:41.191Z,184
2019-04-27T04:07:42.539Z,208
2019-04-27T04:08:43.894Z,232
2019-04-27T04:09:45.260Z,256
2019-04-27T04:10:46.609Z,288
2019-04-27T04:11:49.134Z,324
2019-04-27T04:12:50.106Z,360
2019-04-27T04:13:50.612Z,392
2019-04-27T04:14:51.968Z,424
2019-04-27T04:15:53.373Z,460
2019-04-27T04:16:58.862Z,504
2019-04-27T04:17:56.037Z,548
2019-04-27T04:18:57.410Z,596
2019-04-27T04:20:01.227Z,640
2019-04-27T04:21:00.476Z,672
2019-04-27T04:22:01.400Z,708
2019-04-27T04:23:03.410Z,752
2019-04-27T04:24:04.090Z,804
2019-04-27T04:25:05.452Z,856
2019-04-27T04:26:06.801Z,916
2019-04-27T04:27:09.697Z,980
2019-04-27T04:28:09.622Z,1044
2019-04-27T04:29:10.812Z,1136
2019-04-27T04:30:12.589Z,1252
2019-04-27T04:31:13.933Z,1388
2019-04-27T04:32:14.888Z,1536
2019-04-27T04:33:16.234Z,1664
2019-04-27T04:34:19.558Z,1780
2019-04-27T04:35:21.203Z,1912
2019-04-27T04:36:20.355Z,2076
2019-04-27T04:37:21.558Z,2184
2019-04-27T04:38:22.921Z,2292
2019-04-27T04:39:24.278Z,2332
2019-04-27T04:40:25.627Z,2340
2019-04-27T04:41:27.010Z,2344
2019-04-27T04:42:29.985Z,2356
2019-04-27T04:43:29.713Z,2276
2019-04-27T04:44:31.070Z,2264
2019-04-27T04:45:32.412Z,2264
2019-04-27T04:46:33.839Z,2280
2019-04-27T04:47:35.187Z,2308
2019-04-27T04:48:36.530Z,2352
2019-04-27T04:49:39.602Z,2392
2019-04-27T04:50:39.647Z,2440
2019-04-27T04:51:40.577Z,2488
2019-04-27T04:52:42.415Z,2528
2019-04-27T04:53:43.255Z,2584
2019-04-27T04:54:44.627Z,2624
2019-04-27T04:55:45.978Z,2676
2019-04-27T04:56:48.908Z,2716
2019-04-27T04:57:49.337Z,2756
2019-04-27T04:58:49.988Z,2800
2019-04-27T04:59:51.576Z,2848
2019-04-27T05:00:52.684Z,2892
2019-04-27T05:01:54.084Z,2932
2019-04-27T05:02:55.429Z,2984
2019-04-27T05:03:56.804Z,3036
2019-04-27T05:04:59.072Z,3088
2019-04-27T05:05:59.512Z,3148
2019-04-27T05:07:00.890Z,3256
2019-04-27T05:08:02.234Z,3252
2019-04-27T05:09:03.599Z,3320
2019-04-27T05:10:04.953Z,3400
2019-04-27T05:11:06.314Z,3484
2019-04-27T05:12:08.781Z,3556
2019-04-27T05:13:09.380Z,3636
2019-04-27T05:14:10.335Z,3672
2019-04-27T05:15:11.680Z,3756
2019-04-27T05:16:13.044Z,3812
2019-04-27T05:17:14.410Z,4040
2019-04-27T05:18:15.758Z,3992
2019-04-27T05:19:18.743Z,4016
2019-04-27T05:20:24.376Z,4140
2019-04-27T05:21:19.804Z,4820
2019-04-27T05:22:21.159Z,5680
2019-04-27T05:23:22.523Z,6848
2019-04-27T05:24:23.875Z,7204
2019-04-27T05:25:25.232Z,6396
2019-04-27T05:26:26.597Z,5676
2019-04-27T05:27:29.009Z,5756
2019-04-27T05:28:29.881Z,7040
2019-04-27T05:29:30.597Z,8440
2019-04-27T05:30:31.964Z,8044
2019-04-27T05:31:33.349Z,7348
2019-04-27T05:32:34.704Z,7544
2019-04-27T05:33:36.068Z,8088
2019-04-27T05:34:39.329Z,7992
2019-04-27T05:35:40.855Z,8384
2019-04-27T05:36:41.667Z,8120
2019-04-27T05:37:44.276Z,7788
2019-04-27T05:38:45.843Z,7636
2019-04-27T05:39:44.110Z,7564
2019-04-27T05:40:45.480Z,7636
2019-04-27T05:41:46.847Z,7660
2019-04-27T05:42:48.850Z,8000
2019-04-27T05:43:49.533Z,8460
2019-04-27T05:44:50.894Z,9128
2019-04-27T05:45:53.216Z,7892
2019-04-27T05:46:53.695Z,6916
2019-04-27T05:47:54.982Z,6912
2019-04-27T05:48:59.919Z,7544
2019-04-27T05:49:58.857Z,8484
2019-04-27T05:51:01.755Z,7528
2019-04-27T05:52:00.303Z,8296
2019-04-27T05:53:02.389Z,9388
2019-04-27T05:54:03.750Z,9804
2019-04-27T05:55:05.116Z,10172
2019-04-27T05:56:06.473Z,10796
2019-04-27T05:57:09.393Z,11340
2019-04-27T05:58:09.395Z,11772
2019-04-27T05:59:10.483Z,12328
2019-04-27T06:00:11.849Z,12516
2019-04-27T06:01:13.218Z,12500
2019-04-27T06:02:14.565Z,12676
2019-04-27T06:03:15.935Z,12816
2019-04-27T06:04:19.083Z,13004
2019-04-27T06:05:18.991Z,13264
2019-04-27T06:06:19.949Z,13488
2019-04-27T06:07:21.309Z,13676
2019-04-27T06:08:22.668Z,13792
2019-04-27T06:09:24.024Z,13936
2019-04-27T06:10:25.389Z,14212
2019-04-27T06:11:28.184Z,15412
2019-04-27T06:12:29.404Z,17356
2019-04-27T06:13:31.018Z,19936
2019-04-27T06:14:30.774Z,21504
2019-04-27T06:15:32.129Z,21824
2019-04-27T06:16:33.493Z,19776
2019-04-27T06:17:34.859Z,17248
2019-04-27T06:18:36.211Z,16620
2019-04-27T06:19:38.980Z,17984
2019-04-27T06:20:50.444Z,20608
2019-04-27T06:21:40.333Z,23712
2019-04-27T06:22:41.582Z,23968
2019-04-27T06:23:42.942Z,23552
2019-04-27T06:24:44.303Z,23456
2019-04-27T06:25:45.669Z,23296
2019-04-27T06:26:47.037Z,20000
2019-04-27T06:27:49.542Z,17180
2019-04-27T06:28:50.470Z,18560
2019-04-27T06:29:51.052Z,20800
2019-04-27T06:30:52.414Z,20544
2019-04-27T06:31:53.822Z,16880
2019-04-27T06:32:55.184Z,18144
2019-04-27T06:33:56.573Z,17000
2019-04-27T06:34:59.023Z,22016
2019-04-27T06:35:59.457Z,20416
2019-04-27T06:37:00.604Z,23680
2019-04-27T06:38:01.969Z,21856
2019-04-27T06:39:03.329Z,22304
2019-04-27T06:40:04.695Z,22400
2019-04-27T06:41:06.066Z,23456
2019-04-27T06:42:16.721Z,24192
2019-04-27T06:43:08.785Z,25216
2019-04-27T06:44:11.458Z,28384
2019-04-27T06:45:11.457Z,32736
2019-04-27T06:46:12.812Z,37120
2019-04-27T06:47:14.180Z,44384
2019-04-27T06:48:15.544Z,53952
2019-04-27T06:49:16.920Z,62976
2019-04-27T06:50:19.500Z,64960
2019-04-27T06:51:19.667Z,64064
2019-04-27T06:52:20.983Z,62560
2019-04-27T06:53:22.353Z,65088
2019-04-27T06:54:23.720Z,56896
2019-04-27T06:55:25.090Z,32640
2019-04-27T06:56:26.462Z,27648
2019-04-27T06:57:29.137Z,25760
2019-04-27T06:58:29.344Z,23968
2019-04-27T06:59:30.509Z,22432
2019-04-27T07:00:31.874Z,22400
2019-04-27T07:01:33.234Z,20736
2019-04-27T07:02:34.648Z,18944
2019-04-27T07:03:36.014Z,16948
2019-04-27T07:04:38.939Z,15096
2019-04-27T07:05:38.808Z,14432
2019-04-27T07:06:52.790Z,16000
2019-04-27T07:07:41.388Z,18176
2019-04-27T07:08:42.752Z,18816
2019-04-27T07:09:44.124Z,19520
2019-04-27T07:10:45.490Z,19232
2019-04-27T07:11:46.864Z,20032
2019-04-27T07:12:49.096Z,21056
2019-04-27T07:13:49.794Z,24992
2019-04-27T07:14:54.886Z,20128
2019-04-27T07:15:52.210Z,24832
2019-04-27T07:16:53.586Z,24000
2019-04-27T07:17:54.956Z,23168
2019-04-27T07:18:56.320Z,13572
2019-04-27T07:19:59.257Z,10520
2019-04-27T07:20:59.047Z,8744
2019-04-27T07:22:00.414Z,8176
2019-04-27T07:23:01.775Z,7844
2019-04-27T07:24:03.163Z,7720
2019-04-27T07:25:04.520Z,7516
2019-04-27T07:26:05.897Z,7148
2019-04-27T07:27:07.253Z,7128
2019-04-27T07:28:09.151Z,8016
2019-04-27T07:29:09.967Z,8816
2019-04-27T07:30:11.728Z,8552
2019-04-27T07:31:12.659Z,7764
2019-04-27T07:32:14.030Z,7304
2019-04-27T07:33:15.395Z,7704
2019-04-27T07:34:16.760Z,8832
2019-04-27T07:35:19.505Z,10044
2019-04-27T07:36:19.452Z,10692
2019-04-27T07:37:20.824Z,10832
2019-04-27T07:38:22.177Z,11104
2019-04-27T07:39:23.553Z,11900
2019-04-27T07:40:24.917Z,11872
2019-04-27T07:41:26.284Z,12212
2019-04-27T07:42:30.296Z,12872
2019-04-27T07:43:29.284Z,14620
2019-04-27T07:44:30.308Z,17120
2019-04-27T07:45:31.669Z,18912
2019-04-27T07:46:33.034Z,18720
2019-04-27T07:47:34.411Z,16564
2019-04-27T07:48:35.775Z,13632
2019-04-27T07:49:39.002Z,12072
2019-04-27T07:50:39.033Z,10752
2019-04-27T07:51:39.801Z,10056
2019-04-27T07:52:41.176Z,10220
2019-04-27T07:53:42.528Z,10176
2019-04-27T07:54:43.897Z,10180
2019-04-27T07:55:45.258Z,10524
2019-04-27T07:56:46.624Z,11648
2019-04-27T07:57:49.352Z,13584
2019-04-27T07:58:49.447Z,14604
2019-04-27T07:59:50.644Z,14280
2019-04-27T08:00:52.008Z,15540
2019-04-27T08:01:53.378Z,15420
2019-04-27T08:02:54.747Z,14704
2019-04-27T08:03:56.103Z,15196
2019-04-27T08:04:57.479Z,15920
2019-04-27T08:05:58.938Z,16648
2019-04-27T08:07:00.139Z,15068
2019-04-27T08:08:01.496Z,13428
2019-04-27T08:09:02.869Z,12012
2019-04-27T08:10:04.229Z,10584
2019-04-27T08:11:05.591Z,9612
2019-04-27T08:12:06.953Z,9572
2019-04-27T08:13:09.500Z,8176
2019-04-27T08:14:09.644Z,7084
2019-04-27T08:15:11.000Z,6352
2019-04-27T08:16:12.375Z,6204
2019-04-27T08:17:13.744Z,6944
2019-04-27T08:18:15.108Z,6844
2019-04-27T08:19:16.465Z,6348
2019-04-27T08:20:19.222Z,5580
2019-04-27T08:21:19.170Z,5256
2019-04-27T08:22:20.529Z,5488
2019-04-27T08:23:21.909Z,6040
2019-04-27T08:24:23.245Z,6900
2019-04-27T08:25:24.628Z,6708
2019-04-27T08:27:05.511Z,5556
2019-04-27T08:28:08.525Z,5280
2019-04-27T08:29:08.600Z,5304
2019-04-27T08:30:09.537Z,5280
2019-04-27T08:31:10.890Z,5076
2019-04-27T08:32:12.250Z,5144
2019-04-27T08:33:13.614Z,5188
2019-04-27T08:34:14.983Z,5344
2019-04-27T08:35:16.352Z,5496
2019-04-27T08:36:18.931Z,6720
2019-04-27T08:37:19.042Z,7904
2019-04-27T08:38:20.669Z,7808
2019-04-27T08:39:21.714Z,8512
2019-04-27T08:40:23.081Z,8476
2019-04-27T08:41:24.445Z,8684
2019-04-27T08:42:25.795Z,9684
2019-04-27T08:43:28.844Z,9868
2019-04-27T08:44:29.216Z,9964
2019-04-27T08:45:29.815Z,10200
2019-04-27T08:46:31.182Z,9324
2019-04-27T08:47:32.536Z,8908
2019-04-27T08:48:36.734Z,7084
2019-04-27T08:49:35.224Z,6980
2019-04-27T08:50:37.791Z,7476
2019-04-27T08:51:39.200Z,8436
2019-04-27T08:52:41.628Z,9240
2019-04-27T08:53:40.558Z,8452
2019-04-27T08:54:41.924Z,8052
2019-04-27T08:55:43.291Z,7764
2019-04-27T08:56:44.679Z,6176
2019-04-27T08:57:46.030Z,5068
2019-04-27T08:58:47.387Z,4940
2019-04-27T08:59:48.953Z,5600
2019-04-27T09:00:50.076Z,6196
2019-04-27T09:01:51.438Z,7136
2019-04-27T09:02:52.802Z,7372
2019-04-27T09:03:54.165Z,8324
2019-04-27T09:04:55.539Z,8972
2019-04-27T09:05:56.919Z,8336
2019-04-27T09:06:59.538Z,8276
2019-04-27T09:07:59.804Z,8152
2019-04-27T09:09:00.936Z,8440
2019-04-27T09:10:02.295Z,8652
2019-04-27T09:11:03.692Z,8720
2019-04-27T09:12:05.052Z,8628
2019-04-27T09:13:06.425Z,8660
2019-04-27T09:14:08.948Z,8776
2019-04-27T09:15:09.983Z,8484
2019-04-27T09:16:11.122Z,8536
2019-04-27T09:17:11.770Z,8820
2019-04-27T09:18:13.141Z,9492
2019-04-27T09:19:14.501Z,10600
2019-04-27T09:20:15.881Z,11236
2019-04-27T09:21:19.077Z,11296
2019-04-27T09:22:20.524Z,11428
2019-04-27T09:23:19.919Z,11532
2019-04-27T09:24:21.281Z,11708
2019-04-27T09:25:22.639Z,11768
2019-04-27T09:26:24.017Z,12068
2019-04-27T09:27:25.386Z,12540
2019-04-27T09:28:26.770Z,12788
2019-04-27T09:29:29.803Z,12716
2019-04-27T09:30:29.797Z,12860
2019-04-27T09:31:30.792Z,13440
2019-04-27T09:32:32.150Z,14132
2019-04-27T09:33:33.722Z,14344
2019-04-27T09:34:36.660Z,13988
2019-04-27T09:35:36.360Z,13320
2019-04-27T09:36:37.813Z,12408
2019-04-27T09:37:39.161Z,12760
2019-04-27T09:38:40.526Z,13000
2019-04-27T09:39:41.889Z,12748
2019-04-27T09:40:43.243Z,11412
2019-04-27T09:41:46.022Z,13460
2019-04-27T09:42:46.343Z,17280
2019-04-27T09:43:47.321Z,19328
2019-04-27T09:44:48.710Z,20512
2019-04-27T09:45:50.424Z,19968
2019-04-27T09:46:52.116Z,17120
2019-04-27T09:47:53.721Z,17392
2019-04-27T09:48:56.460Z,15840
2019-04-27T09:49:57.223Z,17084
2019-04-27T09:50:58.886Z,19488
2019-04-27T09:52:00.489Z,19392
2019-04-27T09:53:02.191Z,17324
2019-04-27T09:54:05.399Z,14764
2019-04-27T09:55:06.578Z,15352
2019-04-27T09:56:07.186Z,16564
2019-04-27T09:57:08.539Z,16576
2019-04-27T09:58:09.956Z,15632
2019-04-27T09:59:11.397Z,12076
2019-04-27T10:00:12.813Z,10400
2019-04-27T10:01:15.884Z,10380
2019-04-27T10:02:16.527Z,11092
2019-04-27T10:03:16.886Z,13316
2019-04-27T10:04:18.910Z,12884
2019-04-27T10:05:20.300Z,11972
2019-04-27T10:06:21.710Z,12316
2019-04-27T10:07:23.096Z,11500
2019-04-27T10:08:25.985Z,10280
2019-04-27T10:09:26.365Z,10948
2019-04-27T10:10:27.206Z,10292
2019-04-27T10:11:28.570Z,10892
2019-04-27T10:12:29.935Z,11500
2019-04-27T10:13:31.307Z,13928
2019-04-27T10:14:32.670Z,14168
2019-04-27T10:15:35.614Z,13520
2019-04-27T10:16:36.630Z,12684
2019-04-27T10:17:37.125Z,14336
2019-04-27T10:18:38.491Z,16604
2019-04-27T10:19:39.875Z,19264
2019-04-27T10:20:41.259Z,19168
2019-04-27T10:21:42.605Z,16284
2019-04-27T10:22:44.078Z,15652
2019-04-27T10:23:46.858Z,16148
2019-04-27T10:24:46.684Z,17160
2019-04-27T10:25:48.047Z,19808
2019-04-27T10:26:49.410Z,20544
2019-04-27T10:27:50.771Z,21440
2019-04-27T10:28:52.146Z,22112
2019-04-27T10:29:53.510Z,23040
2019-04-27T10:30:55.741Z,22816
2019-04-27T10:31:56.501Z,21344
2019-04-27T10:32:57.526Z,20960
2019-04-27T10:33:58.891Z,20480
2019-04-27T10:35:00.253Z,19808
2019-04-27T10:36:01.623Z,20032
2019-04-27T10:37:03.020Z,20832
2019-04-27T10:38:04.391Z,21440
2019-04-27T10:39:05.760Z,21344
2019-04-27T10:40:07.115Z,19872
2019-04-27T10:41:08.487Z,15884
2019-04-27T10:42:09.865Z,13156
2019-04-27T10:43:11.236Z,13052
2019-04-27T10:44:12.609Z,12416
2019-04-27T10:45:13.968Z,12724
2019-04-27T10:46:15.680Z,14328
2019-04-27T10:47:16.678Z,14372
2019-04-27T10:48:18.120Z,12904
2019-04-27T10:49:19.452Z,10812
2019-04-27T10:50:20.908Z,9944
2019-04-27T10:51:22.418Z,10584
2019-04-27T10:52:23.900Z,10304
2019-04-27T10:53:26.728Z,9972
2019-04-27T10:54:26.686Z,11268
2019-04-27T10:55:28.002Z,13104
2019-04-27T10:56:29.782Z,11160
2019-04-27T10:57:31.141Z,8552
2019-04-27T10:58:32.955Z,7560
2019-04-27T10:59:35.913Z,7868
2019-04-27T11:00:36.785Z,10296
2019-04-27T11:01:37.795Z,15008
2019-04-27T11:02:39.211Z,16336
2019-04-27T11:03:40.763Z,15068
2019-04-27T11:04:42.120Z,13668
2019-04-27T11:05:43.476Z,14908
2019-04-27T11:06:45.093Z,13784
2019-04-27T11:07:46.466Z,11632
2019-04-27T11:08:48.344Z,11080
2019-04-27T11:09:49.253Z,11456
2019-04-27T11:10:50.618Z,13044
2019-04-27T11:11:52.048Z,13996
2019-04-27T11:12:53.481Z,13796
2019-04-27T11:13:56.631Z,14500
2019-04-27T11:14:56.344Z,12620
2019-04-27T11:15:57.848Z,9540
2019-04-27T11:16:59.336Z,8620
2019-04-27T11:18:00.909Z,9112
2019-04-27T11:19:02.511Z,10988
2019-04-27T11:20:03.983Z,14300
2019-04-27T11:21:05.787Z,16300
2019-04-27T11:22:07.457Z,16296
2019-04-27T11:23:12.163Z,13248
2019-04-27T11:24:10.082Z,9092
2019-04-27T11:25:11.478Z,7608
2019-04-27T11:26:12.913Z,8048
2019-04-27T11:27:14.447Z,9792
2019-04-27T11:28:16.012Z,12560
2019-04-27T11:29:17.591Z,14440
2019-04-27T11:30:19.178Z,13864
2019-04-27T11:31:21.103Z,12664
2019-04-27T11:32:22.903Z,13136
2019-04-27T11:33:26.225Z,15368
2019-04-27T11:34:25.907Z,16108
2019-04-27T11:35:27.473Z,13620
2019-04-27T11:36:29.000Z,12512
2019-04-27T11:37:30.500Z,10324
2019-04-27T11:38:31.956Z,9620
2019-04-27T11:39:33.443Z,11644
2019-04-27T11:40:36.382Z,13680
2019-04-27T11:41:36.332Z,13648
2019-04-27T11:42:37.806Z,13212
2019-04-27T11:43:39.364Z,13584
2019-04-27T11:44:40.829Z,8476
2019-04-27T11:45:42.447Z,10296
2019-04-27T11:46:45.511Z,12164
2019-04-27T11:47:45.307Z,11120
2019-04-27T11:48:46.766Z,14796
2019-04-27T11:49:48.256Z,20032
2019-04-27T11:50:49.713Z,21664
2019-04-27T11:51:51.219Z,28512
2019-04-27T11:52:52.725Z,29152
2019-04-27T11:53:54.201Z,26592
2019-04-27T11:54:55.810Z,23424
2019-04-27T11:55:57.227Z,24192
2019-04-27T11:56:58.735Z,25632
2019-04-27T11:58:00.199Z,25920
2019-04-27T11:59:01.586Z,24544
2019-04-27T12:00:03.022Z,22656
2019-04-27T12:01:04.453Z,23456
2019-04-27T12:02:05.894Z,23520
2019-04-27T12:03:07.318Z,23296
2019-04-27T12:04:08.783Z,22496
2019-04-27T12:05:10.244Z,24288
2019-04-27T12:06:11.687Z,19296
2019-04-27T12:07:13.138Z,12988
2019-04-27T12:08:16.073Z,10072
2019-04-27T12:09:16.039Z,8604
2019-04-27T12:10:17.502Z,6936
2019-04-27T12:11:19.020Z,6480
2019-04-27T12:12:21.935Z,7444
2019-04-27T12:13:21.947Z,10912
2019-04-27T12:14:23.423Z,16692
2019-04-27T12:15:26.083Z,22944
2019-04-27T12:16:26.348Z,24512
2019-04-27T12:17:29.213Z,22912
2019-04-27T12:18:29.302Z,19520
2019-04-27T12:19:30.766Z,18240
2019-04-27T12:20:32.300Z,16392
2019-04-27T12:21:33.758Z,16408
2019-04-27T12:22:35.210Z,16144
2019-04-27T12:23:41.162Z,17164
2019-04-27T12:24:38.094Z,19296
2019-04-27T12:25:39.663Z,22112
2019-04-27T12:26:41.138Z,25472
2019-04-27T12:27:42.631Z,23904
2019-04-27T12:28:45.865Z,32512
2019-04-27T12:29:47.184Z,63808
2019-04-27T12:30:46.964Z,73600
2019-04-27T12:31:49.121Z,89312
2019-04-27T12:32:49.887Z,63392
2019-04-27T12:33:51.419Z,50816
2019-04-27T12:34:52.946Z,38624
2019-04-27T12:35:54.382Z,31936
2019-04-27T12:36:55.809Z,33536
2019-04-27T12:37:57.318Z,26400
2019-04-27T12:38:58.782Z,19840
2019-04-27T12:40:00.300Z,22880
2019-04-27T12:41:01.822Z,25824
2019-04-27T12:42:03.353Z,23360
2019-04-27T12:43:04.834Z,21888
2019-04-27T12:44:07.136Z,19744
2019-04-27T12:45:07.664Z,15904
2019-04-27T12:46:09.101Z,14200
2019-04-27T12:47:10.559Z,11988
2019-04-27T12:48:11.993Z,9732
2019-04-27T12:49:13.423Z,10296
2019-04-27T12:50:14.929Z,15084
2019-04-27T12:51:16.369Z,19232
2019-04-27T12:52:17.838Z,23424
2019-04-27T12:53:19.283Z,29984
2019-04-27T12:54:20.733Z,33408
2019-04-27T12:55:22.454Z,30528
2019-04-27T12:56:23.856Z,27872
2019-04-27T12:57:26.332Z,30336
2019-04-27T12:58:26.604Z,30400
2019-04-27T12:59:27.964Z,28160
2019-04-27T13:00:29.374Z,26144
2019-04-27T13:01:30.666Z,21152
2019-04-27T13:02:32.043Z,17856
2019-04-27T13:03:33.462Z,20032
2019-04-27T13:04:36.480Z,21088
2019-04-27T13:05:36.098Z,22080
2019-04-27T13:06:37.464Z,20192
2019-04-27T13:07:38.828Z,16884
2019-04-27T13:08:40.199Z,15556
2019-04-27T13:09:41.562Z,15720
2019-04-27T13:10:42.923Z,16368
2019-04-27T13:11:45.809Z,16692
2019-04-27T13:12:46.093Z,15844
2019-04-27T13:13:46.954Z,16024
2019-04-27T13:14:48.325Z,16076
2019-04-27T13:15:49.698Z,14204
2019-04-27T13:16:51.069Z,11216
2019-04-27T13:17:52.434Z,12596
2019-04-27T13:18:53.797Z,14432
2019-04-27T13:19:56.079Z,11128
2019-04-27T13:20:56.504Z,7228
2019-04-27T13:21:57.862Z,5784
2019-04-27T13:23:01.651Z,5820
2019-04-27T13:24:03.937Z,5636
2019-04-27T13:25:01.889Z,5768
2019-04-27T13:26:03.280Z,6488
2019-04-27T13:27:06.363Z,7156
2019-04-27T13:28:05.979Z,6484
2019-04-27T13:29:07.342Z,6716
2019-04-27T13:30:08.708Z,7516
2019-04-27T13:31:10.067Z,9548
2019-04-27T13:32:11.429Z,10604
2019-04-27T13:33:12.834Z,12192
2019-04-27T13:34:15.782Z,11828
2019-04-27T13:35:15.815Z,8780
2019-04-27T13:36:16.910Z,5196
2019-04-27T13:37:18.273Z,4388
2019-04-27T13:38:19.651Z,4432
2019-04-27T13:39:21.029Z,4084
2019-04-27T13:40:22.392Z,4660
2019-04-27T13:41:30.342Z,5380
2019-04-27T13:42:25.791Z,6368
2019-04-27T13:43:26.409Z,6964
2019-04-27T13:44:27.777Z,7728
2019-04-27T13:45:29.195Z,8656
2019-04-27T13:46:30.633Z,9116
2019-04-27T13:47:31.997Z,10552
2019-04-27T13:48:33.376Z,8580
2019-04-27T13:49:36.317Z,4136
2019-04-27T13:50:37.203Z,3772
2019-04-27T13:51:37.412Z,5872